Time;durP1;ratioP1;P1;durP2;ratioP2;P2;SDS_P1;SDS_P2;PMS_P1;PMS_P2;Temp;Humidity;BMP_temperature;BMP_pressure;BME280_temperature;BME280_humidity;BME280_pressure;Samples;Min_cycle;Max_cycle;Signal;HPM_P1;HPM_P2
2023/06/30 00:00:25;;;;;;;8.27;6.73;;;;;;;;;;4973169;28;21084;-52
2023/06/30 00:02:55;;;;;;;7.60;6.60;;;;;;;;;;4973018;28;20488;-52
2023/06/30 00:05:22;;;;;;;7.30;6.47;;;;;;;;;;4972490;28;20866;-53
2023/06/30 00:07:54;;;;;;;8.43;6.80;;;;;;;;;;4973049;28;20446;-52
2023/06/30 00:10:22;;;;;;;7.03;6.27;;;;;;;;;;4973121;28;20445;-52
2023/06/30 00:12:49;;;;;;;9.13;7.10;;;;;;;;;;4972915;28;20441;-52
2023/06/30 00:15:16;;;;;;;10.47;8.10;;;;;;;;;;4972482;28;20521;-51
2023/06/30 00:17:48;;;;;;;11.17;8.30;;;;;;;;;;4972771;28;20887;-52
2023/06/30 00:20:15;;;;;;;8.43;7.00;;;;;;;;;;4972400;28;20445;-54
2023/06/30 00:22:42;;;;;;;10.10;7.27;;;;;;;;;;4972864;28;20571;-52
2023/06/30 00:25:10;;;;;;;12.00;7.33;;;;;;;;;;4972345;28;20469;-52
2023/06/30 00:27:38;;;;;;;7.57;6.80;;;;;;;;;;4972563;28;20608;-51
2023/06/30 00:30:05;;;;;;;8.40;6.80;;;;;;;;;;4973054;28;20536;-51
2023/06/30 00:32:34;;;;;;;9.80;7.73;;;;;;;;;;4972702;28;20996;-52
2023/06/30 00:35:03;;;;;;;9.13;7.37;;;;;;;;;;4972668;28;20985;-52
2023/06/30 00:37:30;;;;;;;9.80;6.83;;;;;;;;;;4972558;28;20454;-51
2023/06/30 00:39:58;;;;;;;9.97;7.70;;;;;;;;;;4972543;28;20536;-51
2023/06/30 00:42:25;;;;;;;8.67;7.60;;;;;;;;;;4972478;28;20894;-53
2023/06/30 00:44:52;;;;;;;8.60;6.53;;;;;;;;;;4972945;28;20508;-52
2023/06/30 00:47:19;;;;;;;9.07;7.27;;;;;;;;;;4972809;28;20478;-51
2023/06/30 00:49:47;;;;;;;8.67;7.37;;;;;;;;;;4972702;28;20540;-53
2023/06/30 00:52:16;;;;;;;8.60;7.10;;;;;;;;;;4972346;28;20532;-51
2023/06/30 00:54:43;;;;;;;8.27;6.80;;;;;;;;;;4972294;28;20902;-52
2023/06/30 00:57:10;;;;;;;8.60;7.30;;;;;;;;;;4972262;28;20491;-51
2023/06/30 00:59:37;;;;;;;11.73;8.30;;;;;;;;;;4972355;28;20449;-52
2023/06/30 01:02:08;;;;;;;11.50;7.70;;;;;;;;;;4972028;28;20517;-52
2023/06/30 01:04:38;;;;;;;7.93;6.53;;;;;;;;;;4972314;28;20568;-53
2023/06/30 01:07:10;;;;;;;7.90;6.40;;;;;;;;;;4972082;28;20477;-51
2023/06/30 01:09:40;;;;;;;9.70;8.30;;;;;;;;;;4972283;28;20456;-52
2023/06/30 01:12:08;;;;;;;11.10;7.57;;;;;;;;;;4972517;28;20469;-51
2023/06/30 01:14:35;;;;;;;11.07;7.97;;;;;;;;;;4971545;28;20548;-52
2023/06/30 01:17:03;;;;;;;12.13;8.63;;;;;;;;;;4971913;28;21016;-51
2023/06/30 01:19:35;;;;;;;10.13;7.20;;;;;;;;;;4975832;28;20495;-51
2023/06/30 01:22:05;;;;;;;8.43;6.60;;;;;;;;;;4976234;28;20476;-51
2023/06/30 01:24:34;;;;;;;7.80;6.60;;;;;;;;;;4975768;28;20725;-52
2023/06/30 01:27:03;;;;;;;10.90;7.77;;;;;;;;;;4975968;28;20472;-51
2023/06/30 01:29:31;;;;;;;10.47;7.43;;;;;;;;;;4976036;28;20459;-54
2023/06/30 01:31:59;;;;;;;10.50;7.97;;;;;;;;;;4976077;28;20483;-53
2023/06/30 01:34:26;;;;;;;9.40;7.43;;;;;;;;;;4976240;28;20496;-52
2023/06/30 01:36:53;;;;;;;10.80;7.20;;;;;;;;;;4975624;28;20448;-52
2023/06/30 01:39:20;;;;;;;9.90;6.80;;;;;;;;;;4976051;28;20542;-52
2023/06/30 01:41:48;;;;;;;7.97;6.40;;;;;;;;;;4975804;28;20555;-53
2023/06/30 01:44:16;;;;;;;8.23;6.70;;;;;;;;;;4975906;28;20649;-51
2023/06/30 01:46:44;;;;;;;11.67;7.53;;;;;;;;;;4975254;28;20472;-51
2023/06/30 01:49:12;;;;;;;7.73;6.70;;;;;;;;;;4975792;28;20527;-51
2023/06/30 01:51:40;;;;;;;9.60;7.33;;;;;;;;;;4975390;28;20476;-51
2023/06/30 01:54:07;;;;;;;7.87;6.77;;;;;;;;;;4975577;28;20473;-52
2023/06/30 01:56:36;;;;;;;6.97;5.93;;;;;;;;;;4975427;28;21052;-52
2023/06/30 01:59:03;;;;;;;8.63;6.80;;;;;;;;;;4975483;28;20445;-51
2023/06/30 02:01:32;;;;;;;8.23;7.13;;;;;;;;;;4975442;28;20536;-52
2023/06/30 02:03:59;;;;;;;8.17;6.53;;;;;;;;;;4975132;28;21033;-51
2023/06/30 02:06:26;;;;;;;7.47;6.57;;;;;;;;;;4974971;28;20515;-53
2023/06/30 02:08:53;;;;;;;7.37;6.67;;;;;;;;;;4975451;28;20492;-51
2023/06/30 02:11:22;;;;;;;8.00;6.40;;;;;;;;;;4975281;28;20537;-52
2023/06/30 02:13:49;;;;;;;7.43;6.33;;;;;;;;;;4975307;28;20528;-52
2023/06/30 02:16:16;;;;;;;8.03;6.53;;;;;;;;;;4974278;28;20555;-52
2023/06/30 02:18:45;;;;;;;7.50;6.33;;;;;;;;;;4974774;28;20472;-52
2023/06/30 02:21:12;;;;;;;7.37;5.93;;;;;;;;;;4975597;28;20537;-52
2023/06/30 02:23:39;;;;;;;8.83;6.47;;;;;;;;;;4975149;28;20583;-52
2023/06/30 02:26:06;;;;;;;7.27;5.60;;;;;;;;;;4974610;28;21138;-51
2023/06/30 02:28:34;;;;;;;7.07;6.10;;;;;;;;;;4975290;28;20453;-52
2023/06/30 02:31:01;;;;;;;9.77;7.03;;;;;;;;;;4975270;28;20524;-51
2023/06/30 02:33:28;;;;;;;7.63;6.13;;;;;;;;;;4975025;28;20865;-51
2023/06/30 02:35:57;;;;;;;8.43;5.93;;;;;;;;;;4974593;28;20552;-51
2023/06/30 02:38:24;;;;;;;6.60;5.13;;;;;;;;;;4974668;28;20445;-52
2023/06/30 02:40:51;;;;;;;7.27;5.47;;;;;;;;;;4974862;28;20484;-52
2023/06/30 02:43:18;;;;;;;8.10;6.77;;;;;;;;;;4974643;28;20531;-52
2023/06/30 02:45:46;;;;;;;7.33;6.43;;;;;;;;;;4974541;28;20551;-51
2023/06/30 02:48:13;;;;;;;8.97;6.10;;;;;;;;;;4974995;28;20525;-51
2023/06/30 02:50:40;;;;;;;7.50;6.27;;;;;;;;;;4974659;28;20481;-53
2023/06/30 02:53:09;;;;;;;8.03;6.43;;;;;;;;;;4974661;28;20529;-51
2023/06/30 02:55:36;;;;;;;6.80;5.60;;;;;;;;;;4974604;28;20465;-57
2023/06/30 02:58:03;;;;;;;11.00;6.50;;;;;;;;;;4974842;28;20452;-51
2023/06/30 03:00:31;;;;;;;6.87;5.90;;;;;;;;;;4974351;28;21021;-53
2023/06/30 03:02:58;;;;;;;7.60;5.87;;;;;;;;;;4974646;28;20575;-52
2023/06/30 03:05:25;;;;;;;7.30;6.43;;;;;;;;;;4974079;28;20516;-52
2023/06/30 03:07:52;;;;;;;8.53;7.00;;;;;;;;;;4974437;28;20512;-51
2023/06/30 03:10:21;;;;;;;8.07;6.43;;;;;;;;;;4974138;28;20536;-52
2023/06/30 03:12:48;;;;;;;6.20;5.47;;;;;;;;;;4974427;28;20539;-51
2023/06/30 03:15:16;;;;;;;7.50;6.20;;;;;;;;;;4973556;28;20465;-53
2023/06/30 03:17:43;;;;;;;6.90;6.00;;;;;;;;;;4973917;28;20533;-51
2023/06/30 03:20:12;;;;;;;7.50;5.70;;;;;;;;;;4973689;28;20567;-51
2023/06/30 03:22:39;;;;;;;8.83;6.60;;;;;;;;;;4973909;28;20487;-51
2023/06/30 03:25:08;;;;;;;8.20;5.83;;;;;;;;;;4973705;28;20505;-52
2023/06/30 03:27:36;;;;;;;8.60;6.07;;;;;;;;;;4973849;28;20453;-51
2023/06/30 03:30:04;;;;;;;7.17;5.80;;;;;;;;;;4974168;28;20531;-51
2023/06/30 03:32:31;;;;;;;6.57;5.53;;;;;;;;;;4974205;28;20455;-51
2023/06/30 03:34:59;;;;;;;7.80;6.53;;;;;;;;;;4973594;28;20559;-51
2023/06/30 03:37:27;;;;;;;7.80;5.33;;;;;;;;;;4973750;28;20449;-51
2023/06/30 03:39:54;;;;;;;9.20;6.60;;;;;;;;;;4973682;28;20476;-51
2023/06/30 03:42:21;;;;;;;8.90;6.10;;;;;;;;;;4973284;28;21068;-51
2023/06/30 03:44:50;;;;;;;9.17;6.90;;;;;;;;;;4973485;28;20468;-51
2023/06/30 03:47:17;;;;;;;7.90;5.80;;;;;;;;;;4973244;28;20950;-52
2023/06/30 03:49:44;;;;;;;9.03;5.87;;;;;;;;;;4973520;28;20469;-51
2023/06/30 03:52:12;;;;;;;6.80;5.73;;;;;;;;;;4973511;28;20445;-52
2023/06/30 03:54:39;;;;;;;7.07;5.90;;;;;;;;;;4973529;28;20507;-51
2023/06/30 03:57:06;;;;;;;6.30;5.30;;;;;;;;;;4973085;28;20691;-52
2023/06/30 03:59:33;;;;;;;7.37;6.30;;;;;;;;;;4973244;28;20895;-53
2023/06/30 04:02:02;;;;;;;7.60;6.50;;;;;;;;;;4973081;28;20548;-52
2023/06/30 04:04:29;;;;;;;8.70;5.67;;;;;;;;;;4972924;28;20469;-51
2023/06/30 04:06:57;;;;;;;7.37;6.30;;;;;;;;;;4973211;28;20491;-52
2023/06/30 04:09:24;;;;;;;6.80;6.10;;;;;;;;;;4972992;28;20477;-51
2023/06/30 04:11:51;;;;;;;8.97;6.33;;;;;;;;;;4973040;28;20473;-51
2023/06/30 04:14:19;;;;;;;8.00;6.60;;;;;;;;;;4972190;28;20520;-52
2023/06/30 04:16:46;;;;;;;7.20;5.20;;;;;;;;;;4972610;28;20937;-51
2023/06/30 04:19:15;;;;;;;8.30;6.30;;;;;;;;;;4972548;28;20511;-52
2023/06/30 04:21:42;;;;;;;7.53;5.80;;;;;;;;;;4973057;28;20809;-51
2023/06/30 04:24:09;;;;;;;7.60;5.90;;;;;;;;;;4972660;28;20573;-53
2023/06/30 04:26:36;;;;;;;6.80;5.60;;;;;;;;;;4972146;28;21133;-52
2023/06/30 04:29:04;;;;;;;8.83;5.50;;;;;;;;;;4972706;28;20536;-52
2023/06/30 04:31:31;;;;;;;10.50;6.67;;;;;;;;;;4972763;28;20766;-51
2023/06/30 04:33:58;;;;;;;7.80;6.00;;;;;;;;;;4972616;28;20891;-51
2023/06/30 04:36:29;;;;;;;8.40;6.57;;;;;;;;;;4971970;28;20544;-54
2023/06/30 04:38:57;;;;;;;7.00;5.57;;;;;;;;;;4972829;28;20487;-51
2023/06/30 04:41:25;;;;;;;7.47;6.27;;;;;;;;;;4972689;28;20477;-51
2023/06/30 04:43:52;;;;;;;7.43;6.00;;;;;;;;;;4972475;28;20507;-52
2023/06/30 04:46:19;;;;;;;6.03;5.20;;;;;;;;;;4972061;28;20492;-52
2023/06/30 04:48:48;;;;;;;8.57;6.30;;;;;;;;;;4972573;28;20449;-52
2023/06/30 04:51:15;;;;;;;8.10;7.30;;;;;;;;;;4981318;28;20456;-52
2023/06/30 04:53:44;;;;;;;6.27;5.37;;;;;;;;;;4989719;28;20546;-52
2023/06/30 04:56:11;;;;;;;7.40;6.17;;;;;;;;;;4985787;28;20468;-52
2023/06/30 04:58:38;;;;;;;8.20;5.90;;;;;;;;;;4976520;28;20589;-52
2023/06/30 05:01:05;;;;;;;7.83;6.33;;;;;;;;;;4980210;28;20471;-51
2023/06/30 05:03:33;;;;;;;9.30;6.53;;;;;;;;;;4985915;28;20468;-54
2023/06/30 05:06:00;;;;;;;7.57;6.60;;;;;;;;;;4982045;28;20552;-51
2023/06/30 05:08:27;;;;;;;8.53;7.03;;;;;;;;;;4988930;28;20548;-52
2023/06/30 05:10:56;;;;;;;9.90;7.97;;;;;;;;;;4991442;28;20535;-51
2023/06/30 05:13:23;;;;;;;8.73;7.70;;;;;;;;;;4991630;28;20472;-52
2023/06/30 05:15:50;;;;;;;7.40;6.00;;;;;;;;;;4990556;28;20547;-52
2023/06/30 05:18:17;;;;;;;7.77;6.80;;;;;;;;;;5075197;23;20590;-52
2023/06/30 05:20:44;;;;;;;7.77;6.20;;;;;;;;;;5011166;28;20666;-51
2023/06/30 05:23:12;;;;;;;6.40;5.57;;;;;;;;;;5011066;28;21078;-52
2023/06/30 05:25:39;;;;;;;8.20;6.60;;;;;;;;;;5010749;28;20959;-51
2023/06/30 05:28:08;;;;;;;9.07;7.63;;;;;;;;;;4996559;28;20539;-51
2023/06/30 05:30:35;;;;;;;8.10;6.03;;;;;;;;;;4989473;28;20450;-51
2023/06/30 05:33:02;;;;;;;7.10;6.23;;;;;;;;;;4989826;28;20531;-51
2023/06/30 05:35:29;;;;;;;7.50;5.63;;;;;;;;;;4990290;28;20525;-51
2023/06/30 05:37:57;;;;;;;8.97;7.17;;;;;;;;;;4988396;28;20503;-50
2023/06/30 05:40:24;;;;;;;7.70;5.60;;;;;;;;;;4990490;28;20531;-51
2023/06/30 05:42:51;;;;;;;9.13;7.10;;;;;;;;;;4991021;28;20475;-51
2023/06/30 05:45:20;;;;;;;7.70;6.10;;;;;;;;;;4990252;28;21020;-52
2023/06/30 05:47:47;;;;;;;8.43;6.07;;;;;;;;;;4989969;28;20475;-51
2023/06/30 05:50:14;;;;;;;7.87;6.30;;;;;;;;;;4990185;28;20877;-52
2023/06/30 05:52:42;;;;;;;9.90;6.97;;;;;;;;;;4989365;28;20949;-51
2023/06/30 05:55:09;;;;;;;7.50;6.10;;;;;;;;;;4989510;28;20836;-51
2023/06/30 05:57:36;;;;;;;7.20;6.40;;;;;;;;;;4989709;28;20495;-52
2023/06/30 06:00:04;;;;;;;7.13;6.23;;;;;;;;;;4989964;28;20547;-51
2023/06/30 06:02:33;;;;;;;7.63;6.90;;;;;;;;;;4990979;28;20451;-51
2023/06/30 06:05:00;;;;;;;6.07;5.10;;;;;;;;;;4992386;28;20570;-53
2023/06/30 06:07:27;;;;;;;6.93;6.17;;;;;;;;;;4993223;28;20555;-51
2023/06/30 06:09:55;;;;;;;8.70;7.70;;;;;;;;;;4993513;28;20535;-51
2023/06/30 06:12:22;;;;;;;8.23;7.00;;;;;;;;;;4993412;28;20506;-53
2023/06/30 06:14:49;;;;;;;7.47;6.10;;;;;;;;;;4992751;28;20527;-51
2023/06/30 06:17:16;;;;;;;6.23;5.63;;;;;;;;;;4992360;28;20510;-51
2023/06/30 06:19:45;;;;;;;6.43;5.60;;;;;;;;;;4993454;28;20847;-52
2023/06/30 06:22:12;;;;;;;9.13;7.67;;;;;;;;;;4993973;28;20480;-51
2023/06/30 06:24:39;;;;;;;7.97;6.43;;;;;;;;;;4994347;28;20570;-53
2023/06/30 06:27:07;;;;;;;7.60;6.47;;;;;;;;;;4993970;28;20559;-53
2023/06/30 06:29:34;;;;;;;7.33;5.90;;;;;;;;;;4994540;28;20483;-51
2023/06/30 06:32:01;;;;;;;7.00;5.30;;;;;;;;;;4994240;28;20532;-52
2023/06/30 06:34:28;;;;;;;8.07;6.17;;;;;;;;;;4994252;28;20495;-51
2023/06/30 06:36:57;;;;;;;6.53;5.17;;;;;;;;;;4994150;28;20499;-52
2023/06/30 06:39:24;;;;;;;8.10;6.40;;;;;;;;;;4994172;28;20440;-52
2023/06/30 06:41:52;;;;;;;7.43;6.10;;;;;;;;;;4994233;28;20523;-51
2023/06/30 06:44:19;;;;;;;9.17;6.20;;;;;;;;;;4993956;28;20570;-51
2023/06/30 06:46:46;;;;;;;8.53;6.33;;;;;;;;;;4993953;28;20471;-52
2023/06/30 06:49:13;;;;;;;7.33;6.47;;;;;;;;;;4994145;28;20534;-51
2023/06/30 06:51:41;;;;;;;8.20;6.47;;;;;;;;;;4994103;28;21021;-51
2023/06/30 06:54:09;;;;;;;7.60;6.23;;;;;;;;;;4993942;28;20468;-53
2023/06/30 06:56:36;;;;;;;8.00;7.20;;;;;;;;;;4993445;28;20498;-51
2023/06/30 06:59:04;;;;;;;8.20;7.30;;;;;;;;;;4993827;28;20487;-51
2023/06/30 07:01:31;;;;;;;7.27;6.40;;;;;;;;;;4993943;28;20479;-51
2023/06/30 07:03:58;;;;;;;9.50;7.07;;;;;;;;;;4993088;28;20527;-52
2023/06/30 07:06:25;;;;;;;6.77;6.03;;;;;;;;;;4993627;28;20445;-50
2023/06/30 07:08:53;;;;;;;7.83;6.20;;;;;;;;;;4993729;28;20476;-52
2023/06/30 07:11:21;;;;;;;8.23;7.37;;;;;;;;;;4993961;28;20531;-51
2023/06/30 07:13:49;;;;;;;8.70;6.90;;;;;;;;;;4993467;28;20476;-51
2023/06/30 07:16:17;;;;;;;9.73;6.90;;;;;;;;;;4992331;28;20483;-48
2023/06/30 07:18:45;;;;;;;7.10;5.93;;;;;;;;;;4992740;28;20984;-51
2023/06/30 07:21:12;;;;;;;7.67;6.87;;;;;;;;;;4993507;28;20475;-52
2023/06/30 07:23:39;;;;;;;9.13;7.13;;;;;;;;;;4993348;28;20882;-51
2023/06/30 07:26:06;;;;;;;8.63;7.40;;;;;;;;;;4992732;28;20444;-51
2023/06/30 07:28:35;;;;;;;7.47;5.80;;;;;;;;;;4993619;28;20557;-52
2023/06/30 07:31:03;;;;;;;9.17;7.30;;;;;;;;;;4993338;28;20467;-51
2023/06/30 07:33:30;;;;;;;8.90;7.03;;;;;;;;;;4993350;28;20534;-52
2023/06/30 07:35:57;;;;;;;8.53;7.70;;;;;;;;;;4992699;28;20448;-51
2023/06/30 07:38:24;;;;;;;8.23;6.60;;;;;;;;;;4992851;28;20985;-51
2023/06/30 07:40:52;;;;;;;8.03;7.13;;;;;;;;;;4993325;28;20535;-52
2023/06/30 07:43:19;;;;;;;8.43;6.80;;;;;;;;;;4993151;28;20448;-51
2023/06/30 07:45:47;;;;;;;7.93;6.90;;;;;;;;;;4992729;28;20893;-51
2023/06/30 07:48:15;;;;;;;9.97;8.83;;;;;;;;;;4992848;28;20523;-52
2023/06/30 07:50:42;;;;;;;10.63;7.80;;;;;;;;;;4992919;28;20542;-51
2023/06/30 07:53:09;;;;;;;8.03;7.23;;;;;;;;;;4992536;28;20891;-52
2023/06/30 07:55:36;;;;;;;10.53;8.77;;;;;;;;;;4992951;28;20851;-50
2023/06/30 07:58:04;;;;;;;9.43;7.50;;;;;;;;;;4993002;28;20896;-51
2023/06/30 08:00:31;;;;;;;11.10;8.23;;;;;;;;;;4992711;28;20509;-52
2023/06/30 08:03:00;;;;;;;12.10;7.37;;;;;;;;;;4992169;28;20536;-52
2023/06/30 08:05:27;;;;;;;12.80;7.60;;;;;;;;;;4992418;28;21003;-52
2023/06/30 08:07:55;;;;;;;10.97;7.20;;;;;;;;;;4992348;28;20511;-51
2023/06/30 08:10:22;;;;;;;12.37;8.40;;;;;;;;;;4992348;28;20523;-52
2023/06/30 08:12:49;;;;;;;12.87;8.90;;;;;;;;;;4992796;28;20476;-51
2023/06/30 08:15:16;;;;;;;10.47;8.23;;;;;;;;;;4992137;28;21031;-51
2023/06/30 08:17:44;;;;;;;10.37;7.80;;;;;;;;;;4992016;28;20559;-51
2023/06/30 08:20:13;;;;;;;9.10;7.07;;;;;;;;;;4992231;28;20480;-51
2023/06/30 08:22:40;;;;;;;8.80;7.17;;;;;;;;;;4992377;28;21032;-52
2023/06/30 08:25:07;;;;;;;10.13;7.53;;;;;;;;;;4992223;28;20526;-51
2023/06/30 08:27:35;;;;;;;9.50;7.37;;;;;;;;;;4992057;28;20507;-52
2023/06/30 08:30:02;;;;;;;9.03;7.27;;;;;;;;;;4992001;28;20531;-51
2023/06/30 08:32:29;;;;;;;8.70;7.53;;;;;;;;;;4992147;28;20454;-53
2023/06/30 08:34:56;;;;;;;8.27;7.47;;;;;;;;;;4992168;28;20503;-52
2023/06/30 08:37:25;;;;;;;8.00;7.20;;;;;;;;;;4992147;28;20551;-51
2023/06/30 08:39:52;;;;;;;8.10;6.30;;;;;;;;;;4992434;28;20554;-51
2023/06/30 08:42:21;;;;;;;8.77;7.67;;;;;;;;;;4991963;28;20479;-48
2023/06/30 08:44:52;;;;;;;10.03;8.63;;;;;;;;;;4991861;28;20567;-52
2023/06/30 08:47:20;;;;;;;9.30;7.90;;;;;;;;;;4991765;28;21029;-51
2023/06/30 08:49:48;;;;;;;9.57;8.67;;;;;;;;;;4991718;28;20487;-52
2023/06/30 08:52:16;;;;;;;9.47;7.30;;;;;;;;;;4991453;28;20455;-52
2023/06/30 08:54:45;;;;;;;8.63;7.73;;;;;;;;;;4991814;28;20456;-51
2023/06/30 08:57:15;;;;;;;9.97;7.60;;;;;;;;;;4991278;28;21066;-52
2023/06/30 08:59:42;;;;;;;10.80;8.50;;;;;;;;;;4991919;28;20528;-53
2023/06/30 09:02:09;;;;;;;8.73;7.20;;;;;;;;;;4991189;28;20456;-52
2023/06/30 09:04:37;;;;;;;7.80;6.60;;;;;;;;;;4991856;28;20914;-52
2023/06/30 09:07:06;;;;;;;15.37;7.87;;;;;;;;;;4991512;28;20551;-53
2023/06/30 09:09:37;;;;;;;9.33;8.10;;;;;;;;;;4991820;28;20452;-52
2023/06/30 09:12:07;;;;;;;8.43;7.63;;;;;;;;;;4991652;28;20540;-53
2023/06/30 09:14:34;;;;;;;9.83;6.67;;;;;;;;;;4990799;28;20527;-53
2023/06/30 09:17:02;;;;;;;12.00;7.50;;;;;;;;;;4990920;28;20559;-49
2023/06/30 09:19:30;;;;;;;16.10;8.40;;;;;;;;;;4991005;28;20442;-51
2023/06/30 09:21:57;;;;;;;12.93;8.53;;;;;;;;;;4991697;28;20874;-51
2023/06/30 09:24:25;;;;;;;16.63;8.90;;;;;;;;;;4991622;28;20480;-51
2023/06/30 09:26:54;;;;;;;12.80;8.03;;;;;;;;;;4990210;28;20468;-51
2023/06/30 09:29:24;;;;;;;11.50;6.90;;;;;;;;;;4990546;28;20444;-51
2023/06/30 09:31:51;;;;;;;14.40;8.03;;;;;;;;;;4990482;28;20535;-53
2023/06/30 09:34:19;;;;;;;14.10;8.70;;;;;;;;;;4990727;28;20448;-53
2023/06/30 09:36:47;;;;;;;11.33;8.60;;;;;;;;;;4990424;28;21008;-51
2023/06/30 09:39:15;;;;;;;13.20;7.67;;;;;;;;;;4992678;28;20479;-52
2023/06/30 09:41:43;;;;;;;15.60;8.33;;;;;;;;;;4995230;28;21014;-52
2023/06/30 09:44:11;;;;;;;9.07;7.23;;;;;;;;;;4995020;28;20448;-52
2023/06/30 09:46:45;;;;;;;10.43;9.10;;;;;;;;;;4994762;28;20444;-54
2023/06/30 09:49:23;;;;;;;9.63;7.10;;;;;;;;;;4995276;28;20443;-52
2023/06/30 09:51:50;;;;;;;12.27;8.00;;;;;;;;;;4995085;28;20451;-52
2023/06/30 09:54:18;;;;;;;9.87;7.10;;;;;;;;;;4994915;28;20451;-52
2023/06/30 09:56:46;;;;;;;9.87;6.93;;;;;;;;;;4994737;28;20451;-51
2023/06/30 09:59:13;;;;;;;10.07;7.80;;;;;;;;;;4994640;28;20455;-52
2023/06/30 10:01:42;;;;;;;10.07;7.63;;;;;;;;;;4995137;28;20456;-52
2023/06/30 10:04:09;;;;;;;9.23;6.70;;;;;;;;;;4994277;28;21024;-53
2023/06/30 10:06:39;;;;;;;9.10;7.60;;;;;;;;;;4994448;28;20444;-52
2023/06/30 10:09:07;;;;;;;11.73;8.00;;;;;;;;;;4994864;28;20452;-52
2023/06/30 10:11:34;;;;;;;9.30;7.17;;;;;;;;;;4994905;28;20528;-52
2023/06/30 10:14:02;;;;;;;10.40;7.63;;;;;;;;;;4994200;28;20514;-51
2023/06/30 10:16:29;;;;;;;9.53;6.63;;;;;;;;;;4994340;28;20523;-52
2023/06/30 10:19:00;;;;;;;8.50;7.20;;;;;;;;;;4994254;28;20460;-52
2023/06/30 10:21:27;;;;;;;8.23;7.40;;;;;;;;;;4994650;28;20531;-52
2023/06/30 10:23:54;;;;;;;11.00;7.60;;;;;;;;;;4994310;28;20443;-52
2023/06/30 10:26:23;;;;;;;8.40;7.30;;;;;;;;;;4994000;28;20571;-51
2023/06/30 10:28:50;;;;;;;9.47;7.33;;;;;;;;;;4994415;28;20499;-50
2023/06/30 10:31:18;;;;;;;9.00;6.83;;;;;;;;;;4994015;28;20448;-51
2023/06/30 10:33:45;;;;;;;9.30;7.07;;;;;;;;;;4994106;28;20540;-53
2023/06/30 10:36:14;;;;;;;8.97;7.73;;;;;;;;;;4993210;28;20471;-51
2023/06/30 10:38:43;;;;;;;8.90;6.57;;;;;;;;;;4991225;28;20468;-52
2023/06/30 10:41:14;;;;;;;11.07;6.63;;;;;;;;;;4993932;28;20437;-52
2023/06/30 10:44:00;;;;;;;8.77;7.87;;;;;;;;;;4991279;28;20452;-53
2023/06/30 10:46:41;;;;;;;11.30;7.70;;;;;;;;;;4991217;28;21091;-55
2023/06/30 10:49:08;;;;;;;7.90;6.90;;;;;;;;;;4973489;28;20457;-53
2023/06/30 10:51:38;;;;;;;9.73;7.47;;;;;;;;;;4972543;28;20460;-52
2023/06/30 10:54:05;;;;;;;8.57;7.40;;;;;;;;;;4974243;28;21008;-52
2023/06/30 10:56:35;;;;;;;8.20;7.37;;;;;;;;;;4973986;28;20508;-53
2023/06/30 10:59:04;;;;;;;10.80;7.60;;;;;;;;;;4973440;28;20480;-52
2023/06/30 11:01:31;;;;;;;9.90;7.80;;;;;;;;;;4973658;28;20507;-52
2023/06/30 11:04:14;;;;;;;9.00;7.50;;;;;;;;;;4974212;28;20977;-52
2023/06/30 11:06:47;;;;;;;9.47;6.87;;;;;;;;;;4974080;28;20965;-52
2023/06/30 11:09:14;;;;;;;9.40;7.80;;;;;;;;;;4974127;28;20937;-53
2023/06/30 11:11:51;;;;;;;8.17;7.37;;;;;;;;;;4974285;28;20488;-53
2023/06/30 11:14:32;;;;;;;13.83;8.63;;;;;;;;;;4974002;28;20445;-54
2023/06/30 11:17:03;;;;;;;7.97;7.07;;;;;;;;;;5004748;23;20461;-85
2023/06/30 11:19:31;;;;;;;15.20;10.57;;;;;;;;;;5013593;28;20447;-85
2023/06/30 11:22:17;;;;;;;10.30;9.27;;;;;;;;;;5013913;28;20456;-85
2023/06/30 11:24:45;;;;;;;9.77;8.13;;;;;;;;;;5013677;28;20519;-85
2023/06/30 11:27:13;;;;;;;9.60;7.77;;;;;;;;;;5012871;28;20527;-85
2023/06/30 11:29:41;;;;;;;8.60;7.27;;;;;;;;;;5030867;23;20582;-52
2023/06/30 11:32:08;;;;;;;9.90;8.10;;;;;;;;;;5013214;28;20533;-52
2023/06/30 11:34:36;;;;;;;8.90;7.83;;;;;;;;;;5012909;28;20534;-52
2023/06/30 11:37:06;;;;;;;10.23;7.83;;;;;;;;;;5009703;28;20843;-51
2023/06/30 11:39:33;;;;;;;11.27;7.63;;;;;;;;;;4992706;28;20999;-51
2023/06/30 11:42:01;;;;;;;9.03;8.10;;;;;;;;;;4993774;28;21007;-51
2023/06/30 11:44:29;;;;;;;7.93;6.80;;;;;;;;;;4993564;28;20514;-52
2023/06/30 11:46:56;;;;;;;9.30;7.70;;;;;;;;;;4992792;28;20511;-53
2023/06/30 11:49:26;;;;;;;10.60;7.93;;;;;;;;;;4993106;28;20960;-52
2023/06/30 11:51:53;;;;;;;9.43;8.10;;;;;;;;;;4993010;28;20510;-52
2023/06/30 11:54:20;;;;;;;11.70;8.87;;;;;;;;;;4992826;28;20942;-53
2023/06/30 11:56:48;;;;;;;10.57;8.30;;;;;;;;;;4992377;28;20436;-52
2023/06/30 11:59:16;;;;;;;10.80;8.60;;;;;;;;;;4992907;28;20535;-52
2023/06/30 12:01:44;;;;;;;9.90;8.50;;;;;;;;;;4992614;28;20522;-52
2023/06/30 12:04:33;;;;;;;7.73;6.93;;;;;;;;;;4992629;28;20455;-52
2023/06/30 12:07:00;;;;;;;11.80;8.23;;;;;;;;;;4992460;28;20511;-52
2023/06/30 12:09:27;;;;;;;10.80;7.80;;;;;;;;;;4992908;28;20523;-52
2023/06/30 12:11:56;;;;;;;10.60;8.60;;;;;;;;;;4992767;28;20472;-52
2023/06/30 12:14:26;;;;;;;10.07;8.57;;;;;;;;;;4992205;28;20811;-51
2023/06/30 12:16:53;;;;;;;11.80;9.77;;;;;;;;;;4992310;28;20441;-52
2023/06/30 12:19:27;;;;;;;9.90;8.90;;;;;;;;;;4991920;28;20967;-52
2023/06/30 12:21:55;;;;;;;11.97;10.13;;;;;;;;;;4992575;28;20451;-51
2023/06/30 12:24:23;;;;;;;9.20;8.17;;;;;;;;;;4992658;28;20455;-52
2023/06/30 12:26:51;;;;;;;10.43;8.70;;;;;;;;;;4991998;28;20594;-52
2023/06/30 12:29:18;;;;;;;12.00;9.40;;;;;;;;;;4992142;28;20484;-54
2023/06/30 12:31:47;;;;;;;9.87;8.03;;;;;;;;;;4991988;28;20527;-51
2023/06/30 12:34:15;;;;;;;10.60;8.80;;;;;;;;;;4992003;28;20448;-52
2023/06/30 12:36:42;;;;;;;10.53;8.30;;;;;;;;;;4991882;28;20444;-52
2023/06/30 12:39:10;;;;;;;10.47;9.30;;;;;;;;;;4991975;28;20439;-53
2023/06/30 12:41:37;;;;;;;11.40;10.03;;;;;;;;;;4992203;28;20456;-51
2023/06/30 12:44:04;;;;;;;10.93;9.10;;;;;;;;;;4992065;28;20475;-52
2023/06/30 12:46:36;;;;;;;13.47;11.03;;;;;;;;;;4991720;28;20480;-52
2023/06/30 12:49:05;;;;;;;14.47;9.43;;;;;;;;;;4991882;28;20551;-53
2023/06/30 12:51:33;;;;;;;10.67;9.03;;;;;;;;;;4992562;28;20518;-52
2023/06/30 12:54:00;;;;;;;13.17;10.43;;;;;;;;;;4991854;28;20539;-52
2023/06/30 12:56:28;;;;;;;12.73;10.37;;;;;;;;;;4991570;28;20476;-52
2023/06/30 12:58:55;;;;;;;12.17;10.03;;;;;;;;;;4992013;28;20551;-52
2023/06/30 13:01:22;;;;;;;16.27;12.60;;;;;;;;;;4992025;28;20448;-51
2023/06/30 13:03:49;;;;;;;16.07;13.50;;;;;;;;;;4991074;28;20480;-53
2023/06/30 13:06:18;;;;;;;11.97;10.73;;;;;;;;;;4991204;28;20554;-52
2023/06/30 13:08:45;;;;;;;14.83;11.93;;;;;;;;;;4991478;28;20550;-52
2023/06/30 13:11:13;;;;;;;17.97;12.10;;;;;;;;;;4991896;28;20440;-51
2023/06/30 13:13:40;;;;;;;18.70;12.80;;;;;;;;;;4991135;28;20483;-53
2023/06/30 13:16:07;;;;;;;13.83;11.27;;;;;;;;;;4990642;28;20464;-51
2023/06/30 13:18:34;;;;;;;16.47;12.00;;;;;;;;;;4990726;28;20547;-53
2023/06/30 13:21:02;;;;;;;18.47;12.13;;;;;;;;;;4990688;28;20527;-51
2023/06/30 13:23:30;;;;;;;13.70;10.70;;;;;;;;;;4991085;28;20536;-53
2023/06/30 13:25:57;;;;;;;13.47;10.47;;;;;;;;;;4990848;28;20539;-51
2023/06/30 13:28:25;;;;;;;12.57;11.10;;;;;;;;;;4990820;28;20574;-54
2023/06/30 13:30:52;;;;;;;13.73;11.40;;;;;;;;;;4991055;28;20543;-51
2023/06/30 13:33:19;;;;;;;15.40;13.13;;;;;;;;;;4990645;28;20881;-52
2023/06/30 13:35:46;;;;;;;13.57;11.90;;;;;;;;;;4990204;28;20480;-51
2023/06/30 13:38:14;;;;;;;15.60;12.70;;;;;;;;;;4991484;28;20577;-51
2023/06/30 13:40:42;;;;;;;25.30;12.90;;;;;;;;;;4991129;28;20448;-51
2023/06/30 13:43:09;;;;;;;13.70;11.47;;;;;;;;;;4991387;28;20530;-52
2023/06/30 13:45:37;;;;;;;13.53;12.03;;;;;;;;;;4990127;28;20568;-51
2023/06/30 13:48:06;;;;;;;15.10;11.63;;;;;;;;;;4990225;28;20463;-52
2023/06/30 13:50:33;;;;;;;15.07;12.13;;;;;;;;;;4989799;28;20448;-51
2023/06/30 13:53:00;;;;;;;15.53;12.50;;;;;;;;;;4990082;28;20526;-51
2023/06/30 13:55:28;;;;;;;14.13;12.37;;;;;;;;;;4989637;28;20510;-51
2023/06/30 13:57:56;;;;;;;16.30;11.87;;;;;;;;;;4990782;28;20562;-52
2023/06/30 14:00:24;;;;;;;14.80;12.67;;;;;;;;;;4991198;28;20475;-51
2023/06/30 14:02:51;;;;;;;16.83;12.10;;;;;;;;;;4990903;28;20877;-51
2023/06/30 14:05:18;;;;;;;15.20;11.67;;;;;;;;;;4990729;28;20448;-51
2023/06/30 14:07:45;;;;;;;14.23;12.70;;;;;;;;;;4990803;28;20499;-51
2023/06/30 14:10:12;;;;;;;14.00;12.00;;;;;;;;;;4991051;28;20459;-51
2023/06/30 14:12:40;;;;;;;14.57;12.23;;;;;;;;;;4991228;28;20871;-52
2023/06/30 14:15:10;;;;;;;16.00;12.17;;;;;;;;;;4990547;28;20960;-51
2023/06/30 14:17:37;;;;;;;14.83;12.20;;;;;;;;;;4989764;28;20547;-52
2023/06/30 14:20:04;;;;;;;12.83;11.00;;;;;;;;;;4983082;28;20540;-51
2023/06/30 14:22:32;;;;;;;15.90;12.73;;;;;;;;;;4987117;28;20535;-52
2023/06/30 14:24:59;;;;;;;14.13;12.30;;;;;;;;;;4983314;28;20825;-51
2023/06/30 14:27:26;;;;;;;16.40;13.40;;;;;;;;;;4989245;28;20992;-53
2023/06/30 14:29:53;;;;;;;16.67;13.20;;;;;;;;;;4989125;28;20488;-53
2023/06/30 14:32:25;;;;;;;18.20;14.37;;;;;;;;;;4989443;28;20984;-51
2023/06/30 14:34:52;;;;;;;15.27;12.23;;;;;;;;;;4990150;28;20985;-51
2023/06/30 14:37:20;;;;;;;17.97;12.97;;;;;;;;;;4989534;28;20558;-52
2023/06/30 14:39:47;;;;;;;17.63;13.33;;;;;;;;;;4990327;28;20451;-52